createdAt,value
2023-05-15T00:02:14.406Z,33.5
2023-05-15T00:07:20.700Z,32.2
2023-05-15T00:12:27.118Z,42.5
2023-05-15T00:17:54.626Z,40.8
2023-05-15T00:22:41.103Z,38.4
2023-05-15T00:27:47.527Z,37.7
2023-05-15T00:33:49.973Z,47.4
2023-05-15T00:38:24.315Z,50.1
2023-05-15T00:43:30.720Z,50.5
2023-05-15T00:48:03.044Z,37.0
2023-05-15T00:53:19.621Z,33.2
2023-05-15T00:58:26.003Z,39.2
2023-05-15T01:03:32.490Z,34.1
2023-05-15T01:08:38.798Z,37.0
2023-05-15T01:13:45.173Z,43.2
2023-05-15T01:18:52.811Z,37.5
2023-05-15T01:23:59.162Z,56.2
2023-05-15T01:29:05.554Z,38.2
2023-05-15T01:35:54.159Z,37.2
2023-05-15T01:39:26.332Z,43.5
2023-05-15T01:44:14.699Z,38.1
2023-05-15T01:49:31.079Z,37.8
2023-05-15T01:54:37.487Z,37.5
2023-05-15T01:59:44.983Z,45.6
2023-05-15T02:05:15.409Z,38.1
2023-05-15T02:25:57.679Z,34.2
2023-05-15T02:31:03.680Z,45.0
2023-05-15T02:41:40.214Z,75.3
2023-05-15T02:48:03.668Z,45.3
2023-05-15T02:52:13.904Z,45.7
2023-05-15T02:57:00.397Z,39.8
2023-05-15T03:02:46.718Z,36.9
2023-05-15T03:07:13.017Z,45.0
2023-05-15T03:12:59.130Z,46.5
2023-05-15T03:17:25.443Z,47.2
2023-05-15T03:22:52.833Z,44.1
2023-05-15T03:27:42.490Z,47.9
2023-05-15T03:32:48.910Z,42.6
2023-05-15T03:39:17.547Z,44.2
2023-05-15T03:43:01.775Z,40.7
2023-05-15T03:48:31.342Z,59.3
2023-05-15T03:53:37.713Z,42.7
2023-05-15T03:58:44.151Z,46.2
2023-05-15T04:03:30.529Z,47.8
2023-05-15T04:09:21.113Z,39.4
2023-05-15T04:13:43.959Z,38.5
2023-05-15T04:19:14.529Z,46.8
2023-05-15T04:23:56.779Z,36.8
2023-05-15T04:29:23.212Z,41.1
2023-05-15T04:34:09.584Z,33.8
2023-05-15T04:39:16.105Z,36.6
2023-05-15T04:44:22.471Z,45.9
2023-05-15T04:49:28.877Z,37.7
2023-05-15T04:54:55.271Z,45.9
2023-05-15T04:59:41.647Z,36.6
2023-05-15T05:04:48.105Z,36.4
2023-05-15T05:09:54.607Z,30.8
2023-05-15T05:15:21.155Z,39.3
2023-05-15T05:20:21.572Z,38.6
2023-05-15T05:25:13.881Z,34.1
2023-05-15T05:30:20.261Z,36.4
2023-05-15T05:35:50.734Z,36.8
2023-05-15T05:40:33.135Z,57.8
2023-05-15T05:45:43.070Z,34.4
2023-05-15T05:51:13.517Z,36.2
2023-05-15T05:55:55.823Z,51.3
2023-05-15T06:02:00.380Z,33.6
2023-05-15T06:06:08.571Z,34.3
2023-05-15T06:11:14.987Z,31.4
2023-05-15T06:16:21.345Z,28.2
2023-05-15T06:21:17.780Z,36.4
2023-05-15T06:26:37.814Z,29.5
2023-05-15T06:31:34.154Z,35.7
2023-05-15T06:36:50.521Z,36.7
2023-05-15T06:41:56.943Z,30.0
2023-05-15T06:47:03.531Z,30.7
2023-05-15T06:52:13.795Z,36.0
2023-05-15T06:57:16.171Z,26.4
2023-05-15T07:02:24.659Z,26.6
2023-05-15T07:07:21.080Z,36.3
2023-05-15T07:12:36.724Z,32.4
2023-05-15T07:17:42.960Z,25.9
2023-05-15T07:23:10.289Z,33.5
2023-05-15T07:28:20.823Z,26.0
2023-05-15T07:33:03.079Z,28.6
2023-05-15T07:38:09.501Z,26.2
2023-05-15T07:43:35.912Z,28.9
2023-05-15T07:48:22.401Z,27.3
2023-05-15T07:53:28.846Z,25.8
2023-05-15T07:58:35.283Z,26.4
2023-05-15T08:03:41.820Z,28.2
2023-05-15T08:09:02.115Z,28.0
2023-05-15T08:13:54.455Z,28.5
2023-05-15T08:19:00.848Z,30.8
2023-05-15T08:24:27.318Z,26.8
2023-05-15T08:29:13.667Z,34.6
2023-05-15T08:34:58.153Z,30.6
2023-05-15T08:39:16.432Z,35.9
2023-05-15T08:44:32.830Z,33.5
2023-05-15T08:49:29.194Z,35.0
2023-05-15T08:54:48.105Z,27.3
2023-05-15T08:59:41.949Z,32.2
2023-05-15T09:04:58.370Z,35.6
2023-05-15T09:10:04.896Z,26.6
2023-05-15T09:15:11.810Z,33.3
2023-05-15T09:20:18.383Z,28.4
2023-05-15T09:25:25.600Z,28.6
2023-05-15T09:30:31.636Z,31.0
2023-05-15T09:35:38.029Z,32.3
2023-05-15T09:40:44.442Z,34.6
2023-05-15T09:45:50.871Z,29.2
2023-05-15T09:50:57.406Z,28.6
2023-05-15T09:56:03.988Z,26.8
2023-05-15T10:01:30.424Z,29.5
2023-05-15T10:06:16.818Z,25.4
2023-05-15T10:11:23.131Z,30.1
2023-05-15T10:16:53.533Z,24.8
2023-05-15T10:21:59.985Z,20.6
2023-05-15T10:27:06.381Z,23.7
2023-05-15T10:31:49.103Z,30.3
2023-05-15T10:37:19.364Z,25.5
2023-05-15T10:42:01.682Z,22.2
2023-05-15T10:47:08.092Z,19.6
2023-05-15T10:52:34.495Z,18.7
2023-05-15T10:57:20.842Z,17.6
2023-05-15T11:02:27.282Z,21.3
2023-05-15T11:07:33.598Z,20.0
2023-05-15T11:12:40.044Z,18.2
2023-05-15T11:17:46.623Z,16.4
2023-05-15T11:22:42.909Z,21.6
2023-05-15T11:27:59.339Z,16.6
2023-05-15T11:33:25.766Z,17.2
2023-05-15T11:38:16.093Z,17.7
2023-05-15T11:43:18.477Z,14.9
2023-05-15T11:48:24.953Z,14.5
2023-05-15T11:53:31.465Z,13.3
2023-05-15T11:58:27.916Z,13.3
2023-05-15T12:03:48.040Z,13.3
2023-05-15T12:08:54.287Z,13.6
2023-05-15T12:14:44.786Z,14.7
2023-05-15T12:19:07.142Z,14.3
2023-05-15T12:24:08.082Z,15.6
2023-05-15T12:29:20.044Z,15.7
2023-05-15T12:34:16.495Z,21.4
2023-05-15T12:39:32.977Z,13.1
2023-05-15T12:44:39.330Z,15.3
2023-05-15T12:49:45.737Z,13.6
2023-05-15T12:54:52.139Z,14.0
2023-05-15T12:59:48.674Z,13.8
2023-05-15T13:05:29.085Z,15.1
2023-05-15T13:10:11.643Z,21.0
2023-05-15T13:15:17.964Z,14.1
2023-05-15T13:20:44.387Z,14.2
2023-05-15T13:25:20.875Z,15.2
2023-05-15T13:30:27.560Z,18.5
2023-05-15T13:35:47.290Z,14.5
2023-05-15T13:40:43.836Z,14.2
2023-05-15T13:46:03.802Z,16.4
2023-05-15T13:51:38.271Z,18.8
2023-05-15T13:56:16.598Z,115.9
2023-05-15T14:07:37.879Z,16.9
2023-05-15T14:12:00.288Z,18.5
2023-05-15T14:17:43.637Z,13.6
2023-05-15T14:22:30.874Z,17.2
2023-05-15T14:27:37.267Z,17.7
2023-05-15T14:32:43.670Z,12.8
2023-05-15T14:37:54.027Z,13.6
2023-05-15T14:43:39.073Z,15.7
2023-05-15T14:48:05.598Z,16.1
2023-05-15T14:53:02.940Z,14.3
2023-05-15T14:58:19.335Z,13.2
2023-05-15T15:04:00.864Z,17.1
2023-05-15T15:09:08.179Z,12.3
2023-05-15T15:14:14.561Z,20.8
2023-05-15T15:19:11.180Z,15.9
2023-05-15T15:24:17.580Z,15.9
2023-05-15T15:29:33.986Z,18.1
2023-05-15T15:34:40.420Z,14.4
2023-05-15T15:39:46.771Z,22.9
2023-05-15T15:44:53.152Z,18.6
2023-05-15T15:49:59.616Z,17.5
2023-05-15T15:55:06.013Z,21.0
2023-05-15T16:00:12.497Z,18.6
2023-05-15T16:05:18.907Z,15.9
2023-05-15T16:10:25.253Z,15.3
2023-05-15T16:15:24.046Z,18.5
2023-05-15T16:20:38.203Z,21.5
2023-05-15T16:25:44.381Z,20.3
2023-05-15T16:30:51.368Z,16.8
2023-05-15T16:35:57.315Z,20.5
2023-05-15T16:41:03.683Z,17.4
2023-05-15T16:46:10.118Z,19.2
2023-05-15T16:51:40.509Z,17.3
2023-05-15T16:56:24.409Z,16.6
2023-05-15T17:01:30.794Z,17.4
2023-05-15T17:06:37.183Z,17.6
2023-05-15T17:11:33.582Z,23.8
2023-05-15T17:16:40.021Z,17.8
2023-05-15T17:21:56.339Z,16.6
2023-05-15T17:27:02.743Z,19.3
2023-05-15T17:32:09.316Z,19.0
2023-05-15T17:37:40.816Z,23.8
2023-05-15T17:42:13.154Z,22.4
2023-05-15T17:47:49.655Z,22.6
2023-05-15T17:52:35.896Z,20.4
2023-05-15T17:57:42.329Z,18.1
2023-05-15T18:02:48.855Z,27.4
2023-05-15T18:07:45.778Z,20.7
2023-05-15T18:13:36.306Z,20.2
2023-05-15T18:18:43.708Z,19.7
2023-05-15T18:23:50.059Z,17.7
2023-05-15T18:28:56.543Z,20.7
2023-05-15T18:34:04.372Z,22.7
2023-05-15T18:39:10.997Z,24.7
2023-05-15T18:44:17.961Z,34.2
2023-05-15T18:49:24.309Z,23.4
2023-05-15T18:54:50.778Z,20.5
2023-05-15T18:59:37.125Z,30.9
2023-05-15T19:04:33.469Z,22.0
2023-05-15T19:10:05.056Z,25.0
2023-05-15T19:15:17.669Z,23.5
2023-05-15T19:20:04.009Z,20.7
2023-05-15T19:25:10.386Z,30.1
2023-05-15T19:30:16.770Z,23.6
2023-05-15T19:35:23.155Z,21.4
2023-05-15T19:40:53.670Z,18.5
2023-05-15T19:45:36.033Z,21.3
2023-05-15T19:51:06.587Z,21.7
2023-05-15T19:55:38.878Z,20.5
2023-05-15T20:01:19.345Z,18.6
2023-05-15T20:06:45.748Z,22.9
2023-05-15T20:11:08.016Z,21.5
2023-05-15T20:16:14.458Z,26.4
2023-05-15T20:21:40.816Z,20.1
2023-05-15T20:26:47.784Z,19.0
2023-05-15T20:31:58.352Z,16.7
2023-05-15T20:36:40.483Z,20.5
2023-05-15T20:41:46.868Z,17.6
2023-05-15T20:46:53.294Z,22.6
2023-05-15T20:51:59.654Z,18.8
2023-05-15T20:57:06.158Z,25.4
2023-05-15T21:02:12.568Z,17.6
2023-05-15T21:07:18.921Z,17.2
2023-05-15T21:12:25.311Z,19.2
2023-05-15T21:17:45.795Z,15.8
2023-05-15T21:22:38.088Z,17.8
2023-05-15T21:27:44.480Z,18.7
2023-05-15T21:33:59.053Z,19.5
2023-05-15T21:38:40.352Z,14.7
2023-05-15T21:43:28.713Z,13.5
2023-05-15T21:48:45.092Z,15.1
2023-05-15T21:53:51.487Z,12.9
2023-05-15T21:59:21.911Z,13.4
2023-05-15T22:04:04.418Z,20.1
2023-05-15T22:09:24.886Z,13.3
2023-05-15T22:14:17.220Z,15.8
2023-05-15T22:19:32.586Z,14.0
2023-05-15T22:24:29.997Z,13.2
2023-05-15T22:29:36.367Z,14.4
2023-05-15T22:34:44.332Z,14.8
2023-05-15T22:39:50.764Z,11.8
2023-05-15T22:44:57.171Z,11.9
2023-05-15T22:50:03.515Z,12.3
2023-05-15T22:55:13.472Z,12.7
2023-05-15T23:00:19.846Z,11.5
2023-05-15T23:05:30.206Z,12.0
2023-05-15T23:10:32.673Z,11.0
2023-05-15T23:15:54.166Z,11.5
2023-05-15T23:20:46.541Z,11.1
2023-05-15T23:25:42.959Z,11.4
2023-05-15T23:31:13.412Z,11.2
2023-05-15T23:36:05.687Z,11.3
2023-05-15T23:41:12.100Z,11.2
2023-05-15T23:46:18.851Z,11.7
2023-05-15T23:51:15.031Z,11.6
2023-05-15T23:56:51.501Z,11.9
